Glenville, Minnesota
Current Conditions -  °F | °C
As of 12:14 PM on Monday 26 Jan 2015 (Local Time) from KAEL Reporting Station
Clear Clear  
Wind Chill: 34°   Ceiling: Unl
Heat Index: 41°   Visibility: 10mi
Dew Point: 36°   Wind: 13mph
Humidity: 81%   Direction: 300°WNW
Pressure: 29.74"   Gusts: 17mph
Location:  43.57°N, 93.28°W
Report Text: KAEL 261814Z AUTO 30011G15KT 10SM CLR 05/02 A2974 RMK AO2
Loading
Personal Weather Stations






























Interactive Weather Map New forecast layout! Learn more

10-Day Weather Forecast

Advertisements
Track Severe Weather on mobile